Terminal Aerodrome Forecast
Issued by NWS Glasgow, MT

Current Version | Previous Version | Text Only | Print | Product List | Glossary On
Versions: 1 2 3 4 5 6 7 8 9 10 11 12 13 14 15 16
683
FTUS45 KGGW 261128
TAFGGW
TAF
KGGW 261128Z 2612/2712 30009KT P6SM SKC
     FM261600 27009KT P6SM FEW200
     FM270300 13007KT P6SM SKC=

USA.gov is the U.S. government's official web portal to all federal, state and local government web resources and services.